sensor_id;sensor_type;location;lat;lon;timestamp;pressure;altitude;pressure_sealevel;temperature;humidity
28428;BME280;15662;49.128;8.520;2023-06-10T00:00:50;99970.28;;;25.60;35.28
28428;BME280;15662;49.128;8.520;2023-06-10T00:03:19;99989.00;;;25.63;35.47
28428;BME280;15662;49.128;8.520;2023-06-10T00:05:53;99992.41;;;25.55;35.68
28428;BME280;15662;49.128;8.520;2023-06-10T00:08:21;100000.56;;;25.55;35.71
28428;BME280;15662;49.128;8.520;2023-06-10T00:10:49;99986.16;;;25.45;35.90
28428;BME280;15662;49.128;8.520;2023-06-10T00:13:18;99991.56;;;25.45;35.90
28428;BME280;15662;49.128;8.520;2023-06-10T00:15:47;99996.84;;;25.46;35.92
28428;BME280;15662;49.128;8.520;2023-06-10T00:18:15;99984.19;;;25.37;35.91
28428;BME280;15662;49.128;8.520;2023-06-10T00:20:44;99990.03;;;25.42;35.82
28428;BME280;15662;49.128;8.520;2023-06-10T00:23:12;99984.44;;;25.34;36.38
28428;BME280;15662;49.128;8.520;2023-06-10T00:25:41;99987.00;;;25.36;36.04
28428;BME280;15662;49.128;8.520;2023-06-10T00:28:11;99982.59;;;25.35;36.01
28428;BME280;15662;49.128;8.520;2023-06-10T00:30:39;99979.72;;;25.27;36.40
28428;BME280;15662;49.128;8.520;2023-06-10T00:33:10;99986.03;;;25.08;36.17
28428;BME280;15662;49.128;8.520;2023-06-10T00:35:38;99981.16;;;25.11;36.26
28428;BME280;15662;49.128;8.520;2023-06-10T00:38:07;99992.44;;;25.16;36.53
28428;BME280;15662;49.128;8.520;2023-06-10T00:40:41;99986.03;;;25.17;36.72
28428;BME280;15662;49.128;8.520;2023-06-10T00:43:12;99985.59;;;25.12;36.68
28428;BME280;15662;49.128;8.520;2023-06-10T00:45:40;99988.44;;;25.11;36.79
28428;BME280;15662;49.128;8.520;2023-06-10T00:48:10;99991.16;;;25.11;36.69
28428;BME280;15662;49.128;8.520;2023-06-10T00:50:38;99991.31;;;25.09;36.93
28428;BME280;15662;49.128;8.520;2023-06-10T00:53:07;99977.44;;;25.03;36.72
28428;BME280;15662;49.128;8.520;2023-06-10T00:55:37;99979.25;;;25.02;36.64
28428;BME280;15662;49.128;8.520;2023-06-10T00:58:06;99972.53;;;24.96;36.58
28428;BME280;15662;49.128;8.520;2023-06-10T01:00:36;99982.84;;;24.93;37.09
28428;BME280;15662;49.128;8.520;2023-06-10T01:03:04;99994.25;;;24.96;36.86
28428;BME280;15662;49.128;8.520;2023-06-10T01:05:38;99990.97;;;24.93;37.02
28428;BME280;15662;49.128;8.520;2023-06-10T01:08:27;99994.66;;;24.92;37.17
28428;BME280;15662;49.128;8.520;2023-06-10T01:11:11;99999.94;;;24.84;37.34
28428;BME280;15662;49.128;8.520;2023-06-10T01:13:41;99999.63;;;24.77;37.54
28428;BME280;15662;49.128;8.520;2023-06-10T01:16:11;99993.66;;;24.74;37.36
28428;BME280;15662;49.128;8.520;2023-06-10T01:18:40;99988.22;;;24.74;37.34
28428;BME280;15662;49.128;8.520;2023-06-10T01:21:18;99987.50;;;24.71;37.32
28428;BME280;15662;49.128;8.520;2023-06-10T01:23:46;99993.31;;;24.67;37.39
28428;BME280;15662;49.128;8.520;2023-06-10T01:26:14;99987.34;;;24.63;37.45
28428;BME280;15662;49.128;8.520;2023-06-10T01:28:57;99990.91;;;24.64;37.78
28428;BME280;15662;49.128;8.520;2023-06-10T01:31:55;99986.91;;;24.58;37.66
28428;BME280;15662;49.128;8.520;2023-06-10T01:34:30;99991.75;;;24.55;37.76
28428;BME280;15662;49.128;8.520;2023-06-10T01:36:59;99984.72;;;24.52;37.85
28428;BME280;15662;49.128;8.520;2023-06-10T01:39:28;99990.03;;;24.54;37.80
28428;BME280;15662;49.128;8.520;2023-06-10T01:41:56;100000.28;;;24.50;37.82
28428;BME280;15662;49.128;8.520;2023-06-10T01:44:25;100000.53;;;24.47;37.70
28428;BME280;15662;49.128;8.520;2023-06-10T01:46:53;99996.13;;;24.46;37.81
28428;BME280;15662;49.128;8.520;2023-06-10T01:49:20;100006.25;;;24.44;38.10
28428;BME280;15662;49.128;8.520;2023-06-10T01:51:51;99994.97;;;24.39;37.84
28428;BME280;15662;49.128;8.520;2023-06-10T01:54:19;100007.78;;;24.37;38.14
28428;BME280;15662;49.128;8.520;2023-06-10T01:56:47;99997.22;;;24.34;38.21
28428;BME280;15662;49.128;8.520;2023-06-10T01:59:14;100005.75;;;24.29;38.39
28428;BME280;15662;49.128;8.520;2023-06-10T02:01:43;100006.25;;;24.23;38.44
28428;BME280;15662;49.128;8.520;2023-06-10T02:04:11;100010.25;;;24.19;38.68
28428;BME280;15662;49.128;8.520;2023-06-10T02:06:39;100006.50;;;24.10;38.86
28428;BME280;15662;49.128;8.520;2023-06-10T02:09:06;100017.47;;;24.09;38.65
28428;BME280;15662;49.128;8.520;2023-06-10T02:11:34;100008.00;;;24.03;38.80
28428;BME280;15662;49.128;8.520;2023-06-10T02:14:02;100020.13;;;23.99;39.22
28428;BME280;15662;49.128;8.520;2023-06-10T02:16:30;100008.09;;;23.92;39.38
28428;BME280;15662;49.128;8.520;2023-06-10T02:18:59;100016.75;;;23.86;39.26
28428;BME280;15662;49.128;8.520;2023-06-10T02:21:28;100016.56;;;23.78;39.39
28428;BME280;15662;49.128;8.520;2023-06-10T02:23:56;100022.25;;;23.75;39.33
28428;BME280;15662;49.128;8.520;2023-06-10T02:26:23;100021.66;;;23.71;39.51
28428;BME280;15662;49.128;8.520;2023-06-10T02:28:54;100029.03;;;23.69;39.54
28428;BME280;15662;49.128;8.520;2023-06-10T02:31:23;100030.31;;;23.65;39.41
28428;BME280;15662;49.128;8.520;2023-06-10T02:33:52;100032.16;;;23.64;39.66
28428;BME280;15662;49.128;8.520;2023-06-10T02:36:20;100029.53;;;23.63;39.48
28428;BME280;15662;49.128;8.520;2023-06-10T02:38:49;100039.63;;;23.61;39.55
28428;BME280;15662;49.128;8.520;2023-06-10T02:41:18;100033.47;;;23.59;39.72
28428;BME280;15662;49.128;8.520;2023-06-10T02:43:47;100034.88;;;23.53;39.83
28428;BME280;15662;49.128;8.520;2023-06-10T02:46:15;100039.69;;;23.50;39.88
28428;BME280;15662;49.128;8.520;2023-06-10T02:48:45;100043.38;;;23.49;40.17
28428;BME280;15662;49.128;8.520;2023-06-10T02:51:19;100033.94;;;23.43;40.26
28428;BME280;15662;49.128;8.520;2023-06-10T02:53:50;100038.88;;;23.38;40.36
28428;BME280;15662;49.128;8.520;2023-06-10T02:56:19;100033.59;;;23.36;40.33
28428;BME280;15662;49.128;8.520;2023-06-10T02:58:47;100040.09;;;23.34;40.32
28428;BME280;15662;49.128;8.520;2023-06-10T03:01:17;100035.84;;;23.31;40.41
28428;BME280;15662;49.128;8.520;2023-06-10T03:03:57;100041.50;;;23.28;40.62
28428;BME280;15662;49.128;8.520;2023-06-10T03:06:26;100043.47;;;23.26;40.76
28428;BME280;15662;49.128;8.520;2023-06-10T03:09:03;100043.97;;;23.20;40.69
28428;BME280;15662;49.128;8.520;2023-06-10T03:11:36;100047.78;;;23.17;40.67
28428;BME280;15662;49.128;8.520;2023-06-10T03:14:04;100047.78;;;23.17;40.79
28428;BME280;15662;49.128;8.520;2023-06-10T03:16:33;100045.09;;;23.17;40.82
28428;BME280;15662;49.128;8.520;2023-06-10T03:19:01;100046.19;;;23.15;40.76
28428;BME280;15662;49.128;8.520;2023-06-10T03:21:29;100042.63;;;23.14;40.73
28428;BME280;15662;49.128;8.520;2023-06-10T03:23:58;100043.63;;;23.13;40.81
28428;BME280;15662;49.128;8.520;2023-06-10T03:26:27;100052.59;;;23.14;40.89
28428;BME280;15662;49.128;8.520;2023-06-10T03:28:55;100050.75;;;23.14;40.88
28428;BME280;15662;49.128;8.520;2023-06-10T03:31:24;100056.44;;;23.11;41.17
28428;BME280;15662;49.128;8.520;2023-06-10T03:33:54;100045.38;;;23.03;41.27
28428;BME280;15662;49.128;8.520;2023-06-10T03:36:22;100062.44;;;23.04;41.18
28428;BME280;15662;49.128;8.520;2023-06-10T03:38:50;100055.19;;;23.04;41.21
28428;BME280;15662;49.128;8.520;2023-06-10T03:41:20;100056.72;;;22.97;41.20
28428;BME280;15662;49.128;8.520;2023-06-10T03:43:50;100053.88;;;22.99;41.25
28428;BME280;15662;49.128;8.520;2023-06-10T03:46:18;100056.84;;;22.96;41.50
28428;BME280;15662;49.128;8.520;2023-06-10T03:48:47;100056.94;;;22.94;41.54
28428;BME280;15662;49.128;8.520;2023-06-10T03:51:16;100062.63;;;22.91;41.61
28428;BME280;15662;49.128;8.520;2023-06-10T03:53:44;100068.13;;;22.89;41.79
28428;BME280;15662;49.128;8.520;2023-06-10T03:56:11;100070.84;;;22.89;41.85
28428;BME280;15662;49.128;8.520;2023-06-10T03:58:39;100070.22;;;22.86;41.87
28428;BME280;15662;49.128;8.520;2023-06-10T04:01:07;100064.34;;;22.81;41.97
28428;BME280;15662;49.128;8.520;2023-06-10T04:03:36;100068.00;;;22.80;42.04
28428;BME280;15662;49.128;8.520;2023-06-10T04:06:04;100076.72;;;22.83;42.02
28428;BME280;15662;49.128;8.520;2023-06-10T04:08:33;100072.31;;;22.82;42.08
28428;BME280;15662;49.128;8.520;2023-06-10T04:11:00;100077.56;;;22.84;42.10
28428;BME280;15662;49.128;8.520;2023-06-10T04:13:28;100073.16;;;22.83;42.21
28428;BME280;15662;49.128;8.520;2023-06-10T04:15:58;100076.72;;;22.83;42.08
28428;BME280;15662;49.128;8.520;2023-06-10T04:18:27;100075.72;;;22.84;42.13
28428;BME280;15662;49.128;8.520;2023-06-10T04:20:58;100080.13;;;22.85;42.09
28428;BME280;15662;49.128;8.520;2023-06-10T04:23:26;100076.47;;;22.86;42.25
28428;BME280;15662;49.128;8.520;2023-06-10T04:25:54;100084.59;;;22.86;42.18
28428;BME280;15662;49.128;8.520;2023-06-10T04:28:22;100084.59;;;22.86;42.22
28428;BME280;15662;49.128;8.520;2023-06-10T04:30:49;100092.44;;;22.89;42.34
28428;BME280;15662;49.128;8.520;2023-06-10T04:33:17;100098.47;;;22.93;42.34
28428;BME280;15662;49.128;8.520;2023-06-10T04:35:45;100092.09;;;22.94;42.28
28428;BME280;15662;49.128;8.520;2023-06-10T04:38:15;100079.19;;;22.98;42.32
28428;BME280;15662;49.128;8.520;2023-06-10T04:40:44;100079.81;;;23.01;42.31
28428;BME280;15662;49.128;8.520;2023-06-10T04:43:14;100088.63;;;23.03;42.28
28428;BME280;15662;49.128;8.520;2023-06-10T04:45:44;100087.16;;;23.10;42.37
28428;BME280;15662;49.128;8.520;2023-06-10T04:48:15;100087.03;;;23.12;42.25
28428;BME280;15662;49.128;8.520;2023-06-10T04:50:42;100084.19;;;23.13;42.38
28428;BME280;15662;49.128;8.520;2023-06-10T04:53:11;100089.06;;;23.20;42.13
28428;BME280;15662;49.128;8.520;2023-06-10T04:55:42;100097.19;;;23.20;42.04
28428;BME280;15662;49.128;8.520;2023-06-10T04:58:11;100103.97;;;23.25;42.31
28428;BME280;15662;49.128;8.520;2023-06-10T05:00:39;100106.38;;;23.28;42.31
28428;BME280;15662;49.128;8.520;2023-06-10T05:03:08;100110.56;;;23.32;42.14
28428;BME280;15662;49.128;8.520;2023-06-10T05:05:36;100113.88;;;23.36;42.22
28428;BME280;15662;49.128;8.520;2023-06-10T05:08:04;100117.91;;;23.41;42.21
28428;BME280;15662;49.128;8.520;2023-06-10T05:10:35;100105.09;;;23.43;42.11
28428;BME280;15662;49.128;8.520;2023-06-10T05:13:03;100119.56;;;23.54;42.33
28428;BME280;15662;49.128;8.520;2023-06-10T05:15:30;100119.09;;;23.60;42.21
28428;BME280;15662;49.128;8.520;2023-06-10T05:17:58;100115.16;;;23.64;42.27
28428;BME280;15662;49.128;8.520;2023-06-10T05:20:26;100124.63;;;23.70;42.16
28428;BME280;15662;49.128;8.520;2023-06-10T05:22:56;100118.31;;;23.69;42.23
28428;BME280;15662;49.128;8.520;2023-06-10T05:25:26;100123.81;;;23.79;42.18
28428;BME280;15662;49.128;8.520;2023-06-10T05:27:55;100125.28;;;23.83;42.12
28428;BME280;15662;49.128;8.520;2023-06-10T05:30:22;100128.44;;;23.88;42.04
28428;BME280;15662;49.128;8.520;2023-06-10T05:32:52;100122.78;;;23.91;41.79
28428;BME280;15662;49.128;8.520;2023-06-10T05:35:23;100115.97;;;23.97;41.94
28428;BME280;15662;49.128;8.520;2023-06-10T05:37:51;100132.09;;;23.98;41.92
28428;BME280;15662;49.128;8.520;2023-06-10T05:40:19;100134.16;;;24.06;41.78
28428;BME280;15662;49.128;8.520;2023-06-10T05:42:47;100125.63;;;24.10;41.74
28428;BME280;15662;49.128;8.520;2023-06-10T05:45:15;100132.50;;;24.14;41.50
28428;BME280;15662;49.128;8.520;2023-06-10T05:47:43;100123.25;;;24.17;41.53
28428;BME280;15662;49.128;8.520;2023-06-10T05:50:11;100133.53;;;24.23;41.73
28428;BME280;15662;49.128;8.520;2023-06-10T05:52:39;100143.13;;;24.27;41.54
28428;BME280;15662;49.128;8.520;2023-06-10T05:55:10;100143.97;;;24.28;41.27
28428;BME280;15662;49.128;8.520;2023-06-10T05:57:41;100140.75;;;24.34;41.13
28428;BME280;15662;49.128;8.520;2023-06-10T06:00:10;100133.97;;;24.39;41.19
28428;BME280;15662;49.128;8.520;2023-06-10T06:02:42;100140.56;;;24.47;41.49
28428;BME280;15662;49.128;8.520;2023-06-10T06:05:10;100134.50;;;24.54;41.20
28428;BME280;15662;49.128;8.520;2023-06-10T06:07:38;100141.66;;;24.65;41.20
28428;BME280;15662;49.128;8.520;2023-06-10T06:10:07;100148.84;;;24.76;41.19
28428;BME280;15662;49.128;8.520;2023-06-10T06:12:35;100140.16;;;24.82;41.19
28428;BME280;15662;49.128;8.520;2023-06-10T06:15:03;100143.34;;;24.96;41.21
28428;BME280;15662;49.128;8.520;2023-06-10T06:17:31;100147.72;;;25.09;41.24
28428;BME280;15662;49.128;8.520;2023-06-10T06:19:59;100140.47;;;25.19;41.69
28428;BME280;15662;49.128;8.520;2023-06-10T06:22:27;100136.63;;;25.31;41.58
28428;BME280;15662;49.128;8.520;2023-06-10T06:24:55;100135.22;;;25.46;41.62
28428;BME280;15662;49.128;8.520;2023-06-10T06:27:23;100142.00;;;25.62;41.17
28428;BME280;15662;49.128;8.520;2023-06-10T06:29:51;100145.19;;;25.77;41.12
28428;BME280;15662;49.128;8.520;2023-06-10T06:32:20;100147.31;;;25.92;41.39
28428;BME280;15662;49.128;8.520;2023-06-10T06:34:50;100150.88;;;26.12;40.91
28428;BME280;15662;49.128;8.520;2023-06-10T06:37:25;100146.53;;;26.29;40.91
28428;BME280;15662;49.128;8.520;2023-06-10T06:40:07;100151.56;;;26.43;40.62
28428;BME280;15662;49.128;8.520;2023-06-10T06:42:35;100151.66;;;26.61;40.52
28428;BME280;15662;49.128;8.520;2023-06-10T06:45:18;100152.03;;;26.76;40.24
28428;BME280;15662;49.128;8.520;2023-06-10T06:47:46;100163.28;;;26.91;39.83
28428;BME280;15662;49.128;8.520;2023-06-10T06:50:13;100159.66;;;27.00;39.42
28428;BME280;15662;49.128;8.520;2023-06-10T06:52:42;100154.22;;;27.10;39.40
28428;BME280;15662;49.128;8.520;2023-06-10T06:55:09;100161.00;;;27.23;39.25
28428;BME280;15662;49.128;8.520;2023-06-10T06:57:38;100160.53;;;27.28;39.09
28428;BME280;15662;49.128;8.520;2023-06-10T07:00:06;100168.34;;;27.41;38.98
28428;BME280;15662;49.128;8.520;2023-06-10T07:02:37;100164.84;;;27.48;38.82
28428;BME280;15662;49.128;8.520;2023-06-10T07:05:05;100159.19;;;27.60;38.79
28428;BME280;15662;49.128;8.520;2023-06-10T07:07:34;100154.41;;;27.71;38.65
28428;BME280;15662;49.128;8.520;2023-06-10T07:10:02;100156.88;;;27.83;38.59
28428;BME280;15662;49.128;8.520;2023-06-10T07:12:30;100156.81;;;27.92;38.36
28428;BME280;15662;49.128;8.520;2023-06-10T07:14:59;100155.19;;;27.99;38.10
28428;BME280;15662;49.128;8.520;2023-06-10T07:17:26;100158.97;;;28.07;37.92
28428;BME280;15662;49.128;8.520;2023-06-10T07:19:55;100160.38;;;28.11;37.93
28428;BME280;15662;49.128;8.520;2023-06-10T07:22:25;100156.56;;;28.21;37.55
28428;BME280;15662;49.128;8.520;2023-06-10T07:24:52;100161.69;;;28.24;37.39
28428;BME280;15662;49.128;8.520;2023-06-10T07:27:22;100156.44;;;28.31;37.35
28428;BME280;15662;49.128;8.520;2023-06-10T07:29:51;100147.66;;;28.37;37.24
28428;BME280;15662;49.128;8.520;2023-06-10T07:32:19;100143.78;;;28.40;36.90
28428;BME280;15662;49.128;8.520;2023-06-10T07:34:51;100155.44;;;28.50;36.80
28428;BME280;15662;49.128;8.520;2023-06-10T07:37:19;100156.19;;;28.60;36.82
28428;BME280;15662;49.128;8.520;2023-06-10T07:39:47;100152.78;;;28.66;36.97
28428;BME280;15662;49.128;8.520;2023-06-10T07:42:15;100147.22;;;28.76;36.66
28428;BME280;15662;49.128;8.520;2023-06-10T07:44:43;100140.25;;;28.82;36.64
28428;BME280;15662;49.128;8.520;2023-06-10T07:47:11;100136.91;;;28.88;36.45
28428;BME280;15662;49.128;8.520;2023-06-10T07:49:38;100130.97;;;28.92;36.37
28428;BME280;15662;49.128;8.520;2023-06-10T07:52:07;100131.00;;;29.00;36.22
28428;BME280;15662;49.128;8.520;2023-06-10T07:54:35;100130.38;;;29.07;36.08
28428;BME280;15662;49.128;8.520;2023-06-10T07:57:03;100129.72;;;29.13;36.30
28428;BME280;15662;49.128;8.520;2023-06-10T07:59:32;100140.50;;;29.22;36.01
28428;BME280;15662;49.128;8.520;2023-06-10T08:02:00;100145.47;;;29.27;35.42
28428;BME280;15662;49.128;8.520;2023-06-10T08:04:28;100145.97;;;29.30;35.34
28428;BME280;15662;49.128;8.520;2023-06-10T08:06:58;100132.00;;;29.34;35.43
28428;BME280;15662;49.128;8.520;2023-06-10T08:09:26;100141.06;;;29.42;35.25
28428;BME280;15662;49.128;8.520;2023-06-10T08:11:55;100141.41;;;29.47;34.74
28428;BME280;15662;49.128;8.520;2023-06-10T08:14:23;100136.81;;;29.48;34.71
28428;BME280;15662;49.128;8.520;2023-06-10T08:16:51;100141.41;;;29.47;34.24
28428;BME280;15662;49.128;8.520;2023-06-10T08:19:19;100150.13;;;29.51;34.23
28428;BME280;15662;49.128;8.520;2023-06-10T08:21:48;100143.78;;;29.50;34.30
28428;BME280;15662;49.128;8.520;2023-06-10T08:24:16;100138.50;;;29.49;34.11
28428;BME280;15662;49.128;8.520;2023-06-10T08:26:46;100139.59;;;29.56;34.51
28428;BME280;15662;49.128;8.520;2023-06-10T08:29:14;100139.09;;;29.61;34.39
28428;BME280;15662;49.128;8.520;2023-06-10T08:31:44;100135.16;;;29.63;33.94
28428;BME280;15662;49.128;8.520;2023-06-10T08:34:12;100136.72;;;29.66;34.17
28428;BME280;15662;49.128;8.520;2023-06-10T08:36:41;100129.50;;;29.65;33.88
28428;BME280;15662;49.128;8.520;2023-06-10T08:39:09;100137.38;;;29.68;33.80
28428;BME280;15662;49.128;8.520;2023-06-10T08:41:43;100133.31;;;29.72;33.67
28428;BME280;15662;49.128;8.520;2023-06-10T08:44:22;100134.16;;;29.72;33.82
28428;BME280;15662;49.128;8.520;2023-06-10T08:47:00;100135.84;;;29.73;33.67
28428;BME280;15662;49.128;8.520;2023-06-10T08:49:31;100133.31;;;29.72;33.75
28428;BME280;15662;49.128;8.520;2023-06-10T08:52:02;100132.78;;;29.76;33.55
28428;BME280;15662;49.128;8.520;2023-06-10T08:54:33;100136.03;;;29.80;33.71
28428;BME280;15662;49.128;8.520;2023-06-10T08:57:06;100130.41;;;29.81;33.75
28428;BME280;15662;49.128;8.520;2023-06-10T08:59:36;100134.97;;;29.65;33.99
28428;BME280;15662;49.128;8.520;2023-06-10T09:02:05;100121.16;;;29.74;33.74
28428;BME280;15662;49.128;8.520;2023-06-10T09:04:35;100126.47;;;29.84;33.52
28428;BME280;15662;49.128;8.520;2023-06-10T09:07:05;100124.94;;;29.90;33.37
28428;BME280;15662;49.128;8.520;2023-06-10T09:09:35;100121.53;;;29.96;33.41
28428;BME280;15662;49.128;8.520;2023-06-10T09:12:04;100114.84;;;29.98;33.21
28428;BME280;15662;49.128;8.520;2023-06-10T09:14:32;100116.56;;;29.99;33.27
28428;BME280;15662;49.128;8.520;2023-06-10T09:17:00;100118.78;;;30.04;33.20
28428;BME280;15662;49.128;8.520;2023-06-10T09:19:28;100116.75;;;30.14;33.11
28428;BME280;15662;49.128;8.520;2023-06-10T09:21:57;100120.34;;;30.15;33.39
28428;BME280;15662;49.128;8.520;2023-06-10T09:24:25;100109.78;;;30.20;32.98
28428;BME280;15662;49.128;8.520;2023-06-10T09:27:04;100113.69;;;30.25;32.77
28428;BME280;15662;49.128;8.520;2023-06-10T09:30:06;100107.84;;;30.28;32.87
28428;BME280;15662;49.128;8.520;2023-06-10T09:32:38;100102.38;;;30.12;33.79
28428;BME280;15662;49.128;8.520;2023-06-10T09:35:10;100103.25;;;30.29;33.18
28428;BME280;15662;49.128;8.520;2023-06-10T09:37:40;100109.75;;;30.36;32.98
28428;BME280;15662;49.128;8.520;2023-06-10T09:40:08;100105.25;;;30.43;32.86
28428;BME280;15662;49.128;8.520;2023-06-10T09:42:39;100107.16;;;30.51;32.60
28428;BME280;15662;49.128;8.520;2023-06-10T09:45:07;100096.72;;;30.54;32.95
28428;BME280;15662;49.128;8.520;2023-06-10T09:47:35;100109.00;;;30.58;32.52
28428;BME280;15662;49.128;8.520;2023-06-10T09:50:03;100108.66;;;30.62;32.72
28428;BME280;15662;49.128;8.520;2023-06-10T09:52:31;100101.09;;;30.64;32.68
28428;BME280;15662;49.128;8.520;2023-06-10T09:55:01;100105.91;;;30.70;32.38
28428;BME280;15662;49.128;8.520;2023-06-10T09:57:32;100105.56;;;30.73;32.43
28428;BME280;15662;49.128;8.520;2023-06-10T10:00:11;100095.13;;;30.76;31.98
28428;BME280;15662;49.128;8.520;2023-06-10T10:02:50;100094.59;;;30.81;31.46
28428;BME280;15662;49.128;8.520;2023-06-10T10:05:20;100093.75;;;30.80;31.69
28428;BME280;15662;49.128;8.520;2023-06-10T10:07:49;100086.56;;;30.79;31.49
28428;BME280;15662;49.128;8.520;2023-06-10T10:10:20;100088.78;;;30.84;31.31
28428;BME280;15662;49.128;8.520;2023-06-10T10:12:54;100086.84;;;30.93;31.17
28428;BME280;15662;49.128;8.520;2023-06-10T10:15:31;100084.59;;;30.96;31.25
28428;BME280;15662;49.128;8.520;2023-06-10T10:18:14;100082.38;;;31.00;31.03
28428;BME280;15662;49.128;8.520;2023-06-10T10:20:51;100084.25;;;30.99;31.13
28428;BME280;15662;49.128;8.520;2023-06-10T10:23:32;100076.00;;;31.07;30.83
28428;BME280;15662;49.128;8.520;2023-06-10T10:26:07;100082.63;;;31.13;30.80
28428;BME280;15662;49.128;8.520;2023-06-10T10:31:51;100073.03;;;31.17;30.67
28428;BME280;15662;49.128;8.520;2023-06-10T10:34:36;100075.06;;;31.23;30.57
28428;BME280;15662;49.128;8.520;2023-06-10T10:37:07;100075.06;;;31.23;30.45
28428;BME280;15662;49.128;8.520;2023-06-10T10:39:36;100067.84;;;31.30;30.45
28428;BME280;15662;49.128;8.520;2023-06-10T10:42:05;100072.59;;;31.37;30.44
28428;BME280;15662;49.128;8.520;2023-06-10T10:44:38;100064.22;;;31.38;30.33
28428;BME280;15662;49.128;8.520;2023-06-10T10:47:08;100067.63;;;31.40;30.39
28428;BME280;15662;49.128;8.520;2023-06-10T10:49:39;100060.75;;;31.44;30.17
28428;BME280;15662;49.128;8.520;2023-06-10T10:52:13;100062.94;;;31.49;30.11
28428;BME280;15662;49.128;8.520;2023-06-10T10:54:45;100048.88;;;31.29;30.25
28428;BME280;15662;49.128;8.520;2023-06-10T10:57:20;100052.34;;;31.46;30.30
28428;BME280;15662;49.128;8.520;2023-06-10T11:05:05;100049.97;;;31.66;29.89
28428;BME280;15662;49.128;8.520;2023-06-10T11:07:35;100048.38;;;31.71;30.00
28428;BME280;15662;49.128;8.520;2023-06-10T11:10:11;100047.97;;;31.82;29.72
28428;BME280;15662;49.128;8.520;2023-06-10T11:12:51;100048.28;;;31.88;29.67
28428;BME280;15662;49.128;8.520;2023-06-10T11:15:27;100039.66;;;31.91;29.64
28428;BME280;15662;49.128;8.520;2023-06-10T11:31:39;100025.69;;;32.38;29.19
28428;BME280;15662;49.128;8.520;2023-06-10T11:34:08;100036.25;;;32.41;29.34
28428;BME280;15662;49.128;8.520;2023-06-10T11:36:42;100013.38;;;32.49;29.11
28428;BME280;15662;49.128;8.520;2023-06-10T11:39:13;100019.69;;;32.49;28.96
28428;BME280;15662;49.128;8.520;2023-06-10T11:41:41;100025.09;;;32.57;28.63
28428;BME280;15662;49.128;8.520;2023-06-10T11:44:11;100022.22;;;32.66;28.23
28428;BME280;15662;49.128;8.520;2023-06-10T11:46:41;100012.84;;;32.75;28.02
28428;BME280;15662;49.128;8.520;2023-06-10T11:49:12;100016.72;;;32.80;27.93
28428;BME280;15662;49.128;8.520;2023-06-10T11:51:41;100012.38;;;32.86;27.67
28428;BME280;15662;49.128;8.520;2023-06-10T11:54:17;100009.53;;;32.94;27.36
28428;BME280;15662;49.128;8.520;2023-06-10T11:56:45;100001.97;;;32.96;27.36
28428;BME280;15662;49.128;8.520;2023-06-10T11:59:14;100015.13;;;33.01;27.24
28428;BME280;15662;49.128;8.520;2023-06-10T12:01:44;100008.16;;;33.05;26.82
28428;BME280;15662;49.128;8.520;2023-06-10T12:04:15;100012.44;;;33.07;26.69
28428;BME280;15662;49.128;8.520;2023-06-10T12:06:49;100001.06;;;33.10;26.18
28428;BME280;15662;49.128;8.520;2023-06-10T12:09:26;100007.47;;;33.18;26.13
28428;BME280;15662;49.128;8.520;2023-06-10T12:12:06;100002.84;;;33.18;26.07
28428;BME280;15662;49.128;8.520;2023-06-10T12:14:57;100010.69;;;33.21;26.66
28428;BME280;15662;49.128;8.520;2023-06-10T12:20:02;100014.94;;;33.24;26.85
28428;BME280;15662;49.128;8.520;2023-06-10T12:22:41;100016.50;;;33.33;26.62
28428;BME280;15662;49.128;8.520;2023-06-10T12:25:11;100007.63;;;33.31;26.27
28428;BME280;15662;49.128;8.520;2023-06-10T12:27:50;100002.78;;;33.33;26.20
28428;BME280;15662;49.128;8.520;2023-06-10T12:30:25;99993.75;;;33.39;26.26
28428;BME280;15662;49.128;8.520;2023-06-10T12:32:57;99983.25;;;33.43;26.23
28428;BME280;15662;49.128;8.520;2023-06-10T12:35:27;99994.50;;;33.48;25.94
28428;BME280;15662;49.128;8.520;2023-06-10T12:38:05;99994.97;;;33.51;25.56
28428;BME280;15662;49.128;8.520;2023-06-10T12:40:37;99992.84;;;33.53;25.95
28428;BME280;15662;49.128;8.520;2023-06-10T12:43:08;99997.28;;;33.54;25.77
28428;BME280;15662;49.128;8.520;2023-06-10T12:45:38;99995.22;;;33.56;25.42
28428;BME280;15662;49.128;8.520;2023-06-10T12:50:56;100004.75;;;33.60;25.30
28428;BME280;15662;49.128;8.520;2023-06-10T12:53:25;99994.75;;;33.53;25.61
28428;BME280;15662;49.128;8.520;2023-06-10T12:55:57;99988.03;;;33.55;25.56
28428;BME280;15662;49.128;8.520;2023-06-10T12:58:26;99995.47;;;33.61;25.68
28428;BME280;15662;49.128;8.520;2023-06-10T13:00:55;99995.06;;;33.64;25.40
28428;BME280;15662;49.128;8.520;2023-06-10T13:03:27;99995.06;;;33.64;25.40
28428;BME280;15662;49.128;8.520;2023-06-10T13:05:56;99992.50;;;33.63;25.10
28428;BME280;15662;49.128;8.520;2023-06-10T13:08:25;99995.47;;;33.61;25.50
28428;BME280;15662;49.128;8.520;2023-06-10T13:10:53;99985.72;;;33.59;25.39
28428;BME280;15662;49.128;8.520;2023-06-10T13:13:24;99985.28;;;33.55;25.39
28428;BME280;15662;49.128;8.520;2023-06-10T13:15:53;99993.69;;;33.54;24.89
28428;BME280;15662;49.128;8.520;2023-06-10T13:18:21;99981.84;;;33.53;25.17
28428;BME280;15662;49.128;8.520;2023-06-10T13:20:49;99974.03;;;33.50;25.40
28428;BME280;15662;49.128;8.520;2023-06-10T13:23:17;99976.09;;;33.48;25.18
28428;BME280;15662;49.128;8.520;2023-06-10T13:25:46;99987.09;;;33.48;25.08
28428;BME280;15662;49.128;8.520;2023-06-10T13:28:15;99983.72;;;33.46;25.01
28428;BME280;15662;49.128;8.520;2023-06-10T13:30:43;99982.19;;;33.44;24.71
28428;BME280;15662;49.128;8.520;2023-06-10T13:33:12;99975.19;;;33.41;24.93
28428;BME280;15662;49.128;8.520;2023-06-10T13:35:40;99974.16;;;33.42;24.76